Terminal Aerodrome Forecast
Issued by NWS

Home | Current Version | Previous Version | Text Only | Print | Product List | Glossary On
Versions: 1 2 3 4 5 6 7 8 9 10 11 12 13 14 15 16 17 18 19
000
FTAK31 PAJN 221832 AAA
TAFAWG
TAF AMD
PAWG 221832Z 2219/2318 31006KT 6SM -FZRASN SCT006 BKN012 OVC030
     FM222100 09005KT 6SM -RA BR OVC015
     FM222300 12004KT P6SM VCSH OVC025
     FM230600 28006KT 6SM -RA BR SCT007 OVC015
     FM231600 25006KT P6SM VCSH OVC025
      AMD LTD TO CLD VIS AND WIND 2306/2315=

USA.gov is the U.S. government's official web portal to all federal, state and local government web resources and services.